createdAt,value
2023-05-05T00:04:23.067Z,7.60
2023-05-05T00:09:28.934Z,7.58
2023-05-05T00:14:35.226Z,7.59
2023-05-05T00:19:42.108Z,7.68
2023-05-05T00:24:47.882Z,7.67
2023-05-05T00:29:52.374Z,7.52
2023-05-05T00:34:57.008Z,7.40
2023-05-05T00:40:02.605Z,7.35
2023-05-05T00:45:11.378Z,7.33
2023-05-05T00:50:29.914Z,7.33
2023-05-05T00:55:35.051Z,7.36
2023-05-05T01:00:38.969Z,7.39
2023-05-05T01:06:06.017Z,7.41
2023-05-05T01:11:29.938Z,7.45
2023-05-05T01:16:35.580Z,7.51
2023-05-05T01:21:47.658Z,7.58
2023-05-05T01:27:02.087Z,7.65
2023-05-05T01:32:16.952Z,7.75
2023-05-05T01:37:31.625Z,7.81
2023-05-05T01:42:38.017Z,7.86
2023-05-05T01:47:43.328Z,7.88
2023-05-05T01:52:48.176Z,7.88
2023-05-05T01:57:52.857Z,7.89
2023-05-05T02:03:00.264Z,7.89
2023-05-05T02:08:06.687Z,7.86
2023-05-05T02:13:13.873Z,7.84
2023-05-05T02:18:20.171Z,7.81
2023-05-05T02:23:31.597Z,7.78
2023-05-05T02:28:49.092Z,7.74
2023-05-05T02:33:56.833Z,7.69
2023-05-05T02:39:10.253Z,7.64
2023-05-05T02:44:14.935Z,7.56
2023-05-05T02:49:20.828Z,7.48
2023-05-05T02:54:27.511Z,7.41
2023-05-05T02:59:57.241Z,7.36
2023-05-05T03:05:25.865Z,7.29
2023-05-05T03:10:35.480Z,7.27
2023-05-05T03:15:46.788Z,7.31
2023-05-05T03:20:52.463Z,7.36
2023-05-05T03:25:56.986Z,7.41
2023-05-05T03:31:15.269Z,7.45
2023-05-05T03:36:19.932Z,7.49
2023-05-05T03:41:25.391Z,7.53
2023-05-05T03:46:50.731Z,7.58
2023-05-05T03:51:55.438Z,7.63
2023-05-05T03:57:00.467Z,7.69
2023-05-05T04:02:05.651Z,7.77
2023-05-05T04:07:10.082Z,7.87
2023-05-05T04:12:15.421Z,8.09
2023-05-05T04:17:21.770Z,8.30
2023-05-05T04:22:26.909Z,8.37
2023-05-05T04:27:31.181Z,8.41
2023-05-05T04:32:36.184Z,8.48
2023-05-05T04:37:42.741Z,8.59
2023-05-05T04:42:47.457Z,8.95
2023-05-05T04:47:52.080Z,9.90
2023-05-05T04:52:57.412Z,11.21
2023-05-05T04:58:02.428Z,12.87
2023-05-05T05:03:09.704Z,14.66
2023-05-05T05:08:20.280Z,15.63
2023-05-05T05:13:24.343Z,14.90
2023-05-05T05:18:28.515Z,14.32
2023-05-05T05:23:34.950Z,13.92
2023-05-05T05:28:41.985Z,13.65
2023-05-05T05:33:48.973Z,13.60
2023-05-05T05:38:53.554Z,13.75
2023-05-05T05:43:57.849Z,13.95
2023-05-05T05:49:03.026Z,14.22
2023-05-05T05:54:09.050Z,14.48
2023-05-05T05:59:14.173Z,14.69
2023-05-05T06:04:18.992Z,14.81
2023-05-05T06:09:23.736Z,14.77
2023-05-05T06:14:28.811Z,14.70
2023-05-05T06:19:33.408Z,14.85
2023-05-05T06:24:38.638Z,15.12
2023-05-05T06:29:42.866Z,15.28
2023-05-05T06:34:48.644Z,15.42
2023-05-05T06:39:52.482Z,15.58
2023-05-05T06:44:56.863Z,15.73
2023-05-05T06:50:01.018Z,15.89
2023-05-05T06:55:05.664Z,16.07
2023-05-05T07:00:11.842Z,16.04
2023-05-05T07:05:15.912Z,15.91
2023-05-05T07:10:20.308Z,15.94
2023-05-05T07:15:29.324Z,16.11
2023-05-05T07:20:34.537Z,16.30
2023-05-05T07:25:38.738Z,16.44
2023-05-05T07:30:42.527Z,16.68
2023-05-05T07:35:46.627Z,16.97
2023-05-05T07:40:50.920Z,17.00
2023-05-05T07:45:55.309Z,17.06
2023-05-05T07:50:59.314Z,17.13
2023-05-05T07:56:03.636Z,17.20
2023-05-05T08:01:11.149Z,17.31
2023-05-05T08:06:22.469Z,17.48
2023-05-05T08:11:28.993Z,17.66
2023-05-05T08:16:33.358Z,17.70
2023-05-05T08:21:37.547Z,17.80
2023-05-05T08:26:41.572Z,17.90
2023-05-05T08:31:45.437Z,18.13
2023-05-05T08:36:50.892Z,18.49
2023-05-05T08:41:55.161Z,18.89
2023-05-05T08:47:02.287Z,19.07
2023-05-05T08:52:09.920Z,19.21
2023-05-05T08:57:15.488Z,19.39
2023-05-05T09:02:24.122Z,19.65
2023-05-05T09:07:28.097Z,19.78
2023-05-05T09:12:32.391Z,19.92
2023-05-05T09:17:36.889Z,20.01
2023-05-05T09:22:43.011Z,20.11
2023-05-05T09:27:49.685Z,20.12
2023-05-05T09:32:55.319Z,20.20
2023-05-05T09:38:12.471Z,20.41
2023-05-05T09:43:17.366Z,20.51
2023-05-05T09:48:29.530Z,20.60
2023-05-05T09:53:41.949Z,20.64
2023-05-05T09:58:45.739Z,20.68
2023-05-05T10:03:52.758Z,20.88
2023-05-05T10:09:02.902Z,20.97
2023-05-05T10:14:07.257Z,21.07
2023-05-05T10:19:16.698Z,21.06
2023-05-05T10:24:34.031Z,21.04
2023-05-05T10:29:48.268Z,21.00
2023-05-05T10:34:55.155Z,20.98
2023-05-05T10:39:59.486Z,20.95
2023-05-05T10:45:03.473Z,21.01
2023-05-05T10:50:13.279Z,21.14
2023-05-05T10:55:21.568Z,21.16
2023-05-05T11:00:40.740Z,21.07
2023-05-05T11:06:08.091Z,21.06
2023-05-05T11:11:12.937Z,21.21
2023-05-05T11:16:45.064Z,21.26
2023-05-05T11:22:04.339Z,21.33
2023-05-05T11:27:08.554Z,21.51
2023-05-05T11:32:14.242Z,21.49
2023-05-05T11:37:18.327Z,21.49
2023-05-05T11:42:28.829Z,21.60
2023-05-05T11:47:33.116Z,21.73
2023-05-05T11:52:37.039Z,21.91
2023-05-05T11:57:40.865Z,21.97
2023-05-05T12:02:44.774Z,22.05
2023-05-05T12:07:48.502Z,22.09
2023-05-05T12:12:55.592Z,22.08
2023-05-05T12:18:02.436Z,21.97
2023-05-05T12:23:12.646Z,21.79
2023-05-05T12:28:16.637Z,21.74
2023-05-05T12:33:20.886Z,21.94
2023-05-05T12:38:27.486Z,22.20
2023-05-05T12:43:35.866Z,22.47
2023-05-05T12:48:48.378Z,22.58
2023-05-05T12:54:12.051Z,22.57
2023-05-05T12:59:22.097Z,22.59
2023-05-05T13:04:27.724Z,22.62
2023-05-05T13:09:31.698Z,22.60
2023-05-05T13:14:36.816Z,22.54
2023-05-05T13:19:46.728Z,22.61
2023-05-05T13:24:52.346Z,22.44
2023-05-05T13:30:11.682Z,22.36
2023-05-05T13:35:16.603Z,22.51
2023-05-05T13:40:22.287Z,22.67
2023-05-05T13:45:29.279Z,22.72
2023-05-05T13:50:33.336Z,22.79
2023-05-05T13:55:38.574Z,22.76
2023-05-05T14:00:42.428Z,22.64
2023-05-05T14:05:46.733Z,22.54
2023-05-05T14:10:52.258Z,22.51
2023-05-05T14:15:58.686Z,22.60
2023-05-05T14:21:02.666Z,22.76
2023-05-05T14:26:09.327Z,22.75
2023-05-05T14:31:14.296Z,22.82
2023-05-05T14:36:18.513Z,22.96
2023-05-05T14:41:22.667Z,22.88
2023-05-05T14:46:27.939Z,22.70
2023-05-05T14:51:32.406Z,22.47
2023-05-05T14:56:37.219Z,22.32
2023-05-05T15:01:41.813Z,22.11
2023-05-05T15:06:46.411Z,22.11
2023-05-05T15:11:50.281Z,22.25
2023-05-05T15:16:57.590Z,22.47
2023-05-05T15:22:01.659Z,22.64
2023-05-05T15:27:06.125Z,22.71
2023-05-05T15:32:10.348Z,22.52
2023-05-05T15:37:15.202Z,22.15
2023-05-05T15:42:19.239Z,21.83
2023-05-05T15:47:26.499Z,21.65
2023-05-05T15:52:32.479Z,21.68
2023-05-05T15:57:36.325Z,21.91
2023-05-05T16:02:41.150Z,22.15
2023-05-05T16:07:49.417Z,22.23
2023-05-05T16:12:53.439Z,22.09
2023-05-05T16:17:57.379Z,21.94
2023-05-05T16:23:01.247Z,21.82
2023-05-05T16:28:05.152Z,21.62
2023-05-05T16:33:09.247Z,21.43
2023-05-05T16:38:14.729Z,21.39
2023-05-05T16:43:19.950Z,21.41
2023-05-05T16:48:23.836Z,21.82
2023-05-05T16:53:27.733Z,22.64
2023-05-05T16:58:31.649Z,23.39
2023-05-05T17:03:36.423Z,23.55
2023-05-05T17:08:41.620Z,23.22
2023-05-05T17:13:45.710Z,22.44
2023-05-05T17:18:49.835Z,21.60
2023-05-05T17:23:54.805Z,20.83
2023-05-05T17:28:58.856Z,20.19
2023-05-05T17:34:02.838Z,19.68
2023-05-05T17:39:06.809Z,19.25
2023-05-05T17:44:10.656Z,18.85
2023-05-05T17:49:15.441Z,18.51
2023-05-05T17:54:19.397Z,18.22
2023-05-05T17:59:23.690Z,17.95
2023-05-05T18:04:27.752Z,17.71
2023-05-05T18:09:32.075Z,17.54
2023-05-05T18:14:36.712Z,17.44
2023-05-05T18:19:46.595Z,17.31
2023-05-05T18:24:59.337Z,17.09
2023-05-05T18:30:05.259Z,16.89
2023-05-05T18:35:10.266Z,16.72
2023-05-05T18:40:14.493Z,16.55
2023-05-05T18:45:23.080Z,16.40
2023-05-05T18:50:27.524Z,16.22
2023-05-05T18:55:32.304Z,16.05
2023-05-05T19:00:36.465Z,15.88
2023-05-05T19:05:41.221Z,15.74
2023-05-05T19:10:45.544Z,15.63
2023-05-05T19:15:52.317Z,15.51
2023-05-05T19:20:56.512Z,15.34
2023-05-05T19:26:02.101Z,15.22
2023-05-05T19:31:06.849Z,15.07
2023-05-05T19:36:12.716Z,14.90
2023-05-05T19:41:18.203Z,14.75
2023-05-05T19:46:24.665Z,14.59
2023-05-05T19:51:28.782Z,14.44
2023-05-05T19:56:33.377Z,14.27
2023-05-05T20:01:37.369Z,14.11
2023-05-05T20:06:41.774Z,13.97
2023-05-05T20:11:46.300Z,13.86
2023-05-05T20:16:50.589Z,13.75
2023-05-05T20:21:55.077Z,13.64
2023-05-05T20:26:58.895Z,13.55
2023-05-05T20:32:02.854Z,13.52
2023-05-05T20:37:06.903Z,13.45
2023-05-05T20:42:11.377Z,13.40
2023-05-05T20:47:17.313Z,13.37
2023-05-05T20:52:21.827Z,13.29
2023-05-05T20:57:26.650Z,13.20
2023-05-05T21:02:32.220Z,13.13
2023-05-05T21:07:36.601Z,13.04
2023-05-05T21:12:41.819Z,12.95
2023-05-05T21:17:46.845Z,12.89
2023-05-05T21:22:51.376Z,12.83
2023-05-05T21:27:56.572Z,12.78
2023-05-05T21:33:02.631Z,12.76
2023-05-05T21:38:08.026Z,12.71
2023-05-05T21:43:13.628Z,12.66
2023-05-05T21:48:18.724Z,12.57
2023-05-05T21:53:25.259Z,12.48
2023-05-05T21:58:29.632Z,12.40
2023-05-05T22:03:35.063Z,12.30
2023-05-05T22:08:41.360Z,12.19
2023-05-05T22:13:46.068Z,12.08
2023-05-05T22:18:50.584Z,11.98
2023-05-05T22:23:54.779Z,11.90
2023-05-05T22:28:59.597Z,11.83
2023-05-05T22:34:05.334Z,11.78
2023-05-05T22:39:09.480Z,11.73
2023-05-05T22:44:13.381Z,11.68
2023-05-05T22:49:17.494Z,11.63
2023-05-05T22:54:23.614Z,11.55
2023-05-05T22:59:29.064Z,11.52
2023-05-05T23:04:33.167Z,11.47
2023-05-05T23:09:37.264Z,11.39
2023-05-05T23:14:41.402Z,11.31
2023-05-05T23:19:48.496Z,11.23
2023-05-05T23:24:52.268Z,11.19
2023-05-05T23:29:56.161Z,11.18
2023-05-05T23:35:00.561Z,11.15
2023-05-05T23:40:05.850Z,11.12
2023-05-05T23:45:10.496Z,11.13
2023-05-05T23:50:15.425Z,11.11
2023-05-05T23:55:19.597Z,11.10
